Terminal Aerodrome Forecast
Issued by NWS Sioux Falls, SD

Home | Current Version | Previous Version | Graphics & Text | Print | Product List | Glossary On
Versions: 1 2 3 4 5 6 7 8 9 10 11 12 13 14 15 16 17 18 19 20 21 22 23 24 25 26 27 28 29 30 31 32 33 34 35 36 37 38
000
FTUS43 KFSD 272327
TAFSUX
TAF
KSUX 272327Z 2800/2824 15011KT P6SM SCT030 BKN120
      TEMPO 2800/2802 4SM TSRA BKN025CB
     FM280500 11010KT 6SM SHRA OVC045
      TEMPO 2805/2808 3SM TSRA OVC022CB
     FM281000 15011KT P6SM BKN012
     FM281900 02006KT P6SM -SHRA BKN025
     FM282100 33008KT P6SM -SHRA BKN030=

USA.gov is the U.S. government's official web portal to all federal, state and local government web resources and services.